createdAt,value
2019-01-11T00:00:56.888Z,-0.30
2019-01-11T00:03:25.659Z,-0.30
2019-01-11T00:05:54.934Z,-0.30
2019-01-11T00:08:23.984Z,-0.20
2019-01-11T00:10:52.997Z,-0.30
2019-01-11T00:13:22.122Z,-0.20
2019-01-11T00:15:51.102Z,-0.20
2019-01-11T00:18:19.907Z,-0.30
2019-01-11T00:20:48.744Z,-0.30
2019-01-11T00:23:17.649Z,-0.30
2019-01-11T00:25:46.629Z,-0.20
2019-01-11T00:28:15.624Z,-0.20
2019-01-11T00:30:45.527Z,-0.30
2019-01-11T00:33:14.456Z,-0.30
2019-01-11T00:35:43.290Z,-0.40
2019-01-11T00:38:12.195Z,-0.40
2019-01-11T00:40:41.048Z,-0.40
2019-01-11T00:43:15.037Z,-0.50
2019-01-11T00:45:40.775Z,-0.50
2019-01-11T00:48:09.583Z,-0.60
2019-01-11T00:50:38.306Z,-0.60
2019-01-11T00:53:07.039Z,-0.60
2019-01-11T00:55:35.804Z,-0.60
2019-01-11T00:58:04.768Z,-0.60
2019-01-11T01:00:33.738Z,-0.60
2019-01-11T01:03:02.556Z,-0.60
2019-01-11T01:05:31.522Z,-0.60
2019-01-11T01:08:00.431Z,-0.60
2019-01-11T01:10:29.412Z,-0.60
2019-01-11T01:12:58.450Z,-0.60
2019-01-11T01:15:27.204Z,-0.70
2019-01-11T01:17:56.075Z,-0.60
2019-01-11T01:20:24.807Z,-0.60
2019-01-11T01:22:53.702Z,-0.60
2019-01-11T01:25:22.720Z,-0.60
2019-01-11T01:27:51.667Z,-0.60
2019-01-11T01:30:20.739Z,-0.70
2019-01-11T01:32:49.631Z,-0.70
2019-01-11T01:35:18.344Z,-0.70
2019-01-11T01:37:47.612Z,-0.70
2019-01-11T01:40:17.540Z,-0.70
2019-01-11T01:42:46.725Z,-0.70
2019-01-11T01:45:16.223Z,-0.70
2019-01-11T01:47:45.268Z,-0.70
2019-01-11T01:50:14.387Z,-0.70
2019-01-11T01:52:43.428Z,-0.70
2019-01-11T01:55:13.244Z,-0.70
2019-01-11T01:57:42.158Z,-0.70
2019-01-11T02:00:13.878Z,-0.70
2019-01-11T02:02:42.705Z,-0.60
2019-01-11T02:05:11.741Z,-0.70
2019-01-11T02:07:41.015Z,-0.60
2019-01-11T02:10:11.434Z,-0.60
2019-01-11T02:12:40.383Z,-0.60
2019-01-11T02:15:10.884Z,-0.60
2019-01-11T02:17:40.060Z,-0.60
2019-01-11T02:20:18.887Z,-0.70
2019-01-11T02:22:48.120Z,-0.70
2019-01-11T02:25:17.111Z,-0.70
2019-01-11T02:27:45.937Z,-0.70
2019-01-11T02:30:20.305Z,-0.70
2019-01-11T02:32:53.102Z,-0.70
2019-01-11T02:35:20.344Z,-0.80
2019-01-11T02:37:49.471Z,-0.70
2019-01-11T02:40:18.571Z,-0.70
2019-01-11T02:42:47.998Z,-0.60
2019-01-11T02:45:18.965Z,-0.60
2019-01-11T02:47:47.867Z,-0.70
2019-01-11T02:50:16.833Z,-0.70
2019-01-11T02:52:45.939Z,-0.70
2019-01-11T02:55:14.936Z,-0.70
2019-01-11T02:57:43.828Z,-0.70
2019-01-11T03:00:23.124Z,-0.80
2019-01-11T03:02:51.992Z,-0.70
2019-01-11T03:05:21.166Z,-0.70
2019-01-11T03:07:50.140Z,-0.80
2019-01-11T03:10:21.294Z,-0.80
2019-01-11T03:12:50.425Z,-0.80
2019-01-11T03:15:19.870Z,-0.80
2019-01-11T03:17:48.776Z,-0.80
2019-01-11T03:20:18.375Z,-0.80
2019-01-11T03:22:47.360Z,-0.90
2019-01-11T03:25:16.542Z,-0.80
2019-01-11T03:27:46.552Z,-0.80
2019-01-11T03:30:17.587Z,-0.90
2019-01-11T03:32:46.719Z,-0.90
2019-01-11T03:35:16.432Z,-0.80
2019-01-11T03:37:47.715Z,-1.00
2019-01-11T03:40:19.099Z,-0.90
2019-01-11T03:42:48.050Z,-0.90
2019-01-11T03:45:17.512Z,-0.90
2019-01-11T03:47:47.486Z,-0.90
2019-01-11T03:50:17.217Z,-1.00
2019-01-11T03:52:46.076Z,-1.00
2019-01-11T03:55:16.451Z,-1.00
2019-01-11T03:57:45.634Z,-0.90
2019-01-11T04:00:19.871Z,-1.00
2019-01-11T04:02:48.664Z,-0.90
2019-01-11T04:05:17.642Z,-0.90
2019-01-11T04:07:47.086Z,-0.90
2019-01-11T04:10:19.001Z,-0.90
2019-01-11T04:12:47.918Z,-0.90
2019-01-11T04:15:18.344Z,-0.80
2019-01-11T04:17:56.472Z,-0.90
2019-01-11T04:20:25.528Z,-1.00
2019-01-11T04:22:56.229Z,-0.90
2019-01-11T04:25:31.999Z,-0.90
2019-01-11T04:28:00.915Z,-0.90
2019-01-11T04:30:29.844Z,-0.90
2019-01-11T04:32:58.669Z,-0.90
2019-01-11T04:35:27.501Z,-0.90
2019-01-11T04:37:56.586Z,-0.90
2019-01-11T04:40:44.709Z,-0.90
2019-01-11T04:43:13.495Z,-0.80
2019-01-11T04:45:42.984Z,-0.80
2019-01-11T04:48:11.862Z,-0.70
2019-01-11T04:50:40.721Z,-0.70
2019-01-11T04:53:09.838Z,-0.70
2019-01-11T04:55:38.599Z,-0.80
2019-01-11T04:58:07.862Z,-0.90
2019-01-11T05:00:37.067Z,-0.90
2019-01-11T05:03:05.959Z,-0.80
2019-01-11T05:05:34.800Z,-0.70
2019-01-11T05:08:03.680Z,-0.70
2019-01-11T05:10:32.432Z,-0.70
2019-01-11T05:13:20.534Z,-0.70
2019-01-11T05:15:49.529Z,-0.70
2019-01-11T05:18:18.359Z,-0.70
2019-01-11T05:20:47.764Z,-0.90
2019-01-11T05:23:16.553Z,0.20
2019-01-11T05:25:45.614Z,0.10
2019-01-11T05:28:14.448Z,0.20
2019-01-11T05:30:43.384Z,0.00
2019-01-11T05:33:12.303Z,-0.20
2019-01-11T05:35:41.482Z,-0.40
2019-01-11T05:38:10.573Z,-0.60
2019-01-11T05:40:39.809Z,-0.60
2019-01-11T05:43:08.958Z,-0.70
2019-01-11T05:45:37.819Z,-0.70
2019-01-11T05:48:07.840Z,-0.70
2019-01-11T05:50:36.741Z,-0.70
2019-01-11T05:53:05.558Z,-0.70
2019-01-11T05:55:45.614Z,-0.60
2019-01-11T05:58:43.016Z,-0.60
2019-01-11T06:01:12.873Z,-0.70
2019-01-11T06:03:42.323Z,-0.70
2019-01-11T06:06:11.424Z,-0.70
2019-01-11T06:08:40.827Z,-0.70
2019-01-11T06:11:09.567Z,-0.70
2019-01-11T06:13:38.431Z,-0.70
2019-01-11T06:16:07.515Z,-0.70
2019-01-11T06:18:36.391Z,-0.70
2019-01-11T06:21:05.178Z,-0.80
2019-01-11T06:23:33.990Z,-0.70
2019-01-11T06:26:03.148Z,-0.70
2019-01-11T06:28:32.043Z,-0.60
2019-01-11T06:31:00.859Z,-0.70
2019-01-11T06:33:29.720Z,-0.60
2019-01-11T06:35:58.779Z,-0.70
2019-01-11T06:38:27.579Z,-0.60
2019-01-11T06:40:56.801Z,-0.70
2019-01-11T06:43:25.666Z,-0.60
2019-01-11T06:45:54.415Z,-0.70
2019-01-11T06:48:40.647Z,-0.60
2019-01-11T06:51:09.535Z,-0.60
2019-01-11T06:53:38.413Z,-0.60
2019-01-11T06:56:07.391Z,-0.70
2019-01-11T06:58:36.480Z,-0.70
2019-01-11T07:01:05.604Z,-0.70
2019-01-11T07:03:35.054Z,-0.60
2019-01-11T07:06:03.974Z,-0.60
2019-01-11T07:08:32.851Z,-0.60
2019-01-11T07:11:01.881Z,-0.50
2019-01-11T07:13:30.820Z,-0.50
2019-01-11T07:15:59.563Z,-0.50
2019-01-11T07:18:28.471Z,-0.50
2019-01-11T07:20:57.518Z,-0.50
2019-01-11T07:23:26.242Z,-0.50
2019-01-11T07:25:54.996Z,-0.50
2019-01-11T07:28:23.812Z,-0.50
2019-01-11T07:31:09.638Z,-0.40
2019-01-11T07:33:38.615Z,-0.50
2019-01-11T07:36:42.178Z,-0.50
2019-01-11T07:39:39.453Z,-0.50
2019-01-11T07:42:08.314Z,-0.50
2019-01-11T07:44:38.962Z,-0.60
2019-01-11T07:47:08.074Z,-0.60
2019-01-11T07:49:36.975Z,-0.60
2019-01-11T07:52:05.815Z,-0.60
2019-01-11T07:54:34.865Z,-0.50
2019-01-11T07:57:03.747Z,-0.50
2019-01-11T07:59:32.589Z,-0.40
2019-01-11T08:02:01.367Z,-0.30
2019-01-11T08:04:30.218Z,-0.50
2019-01-11T08:06:59.124Z,-0.40
2019-01-11T08:09:28.174Z,-0.20
2019-01-11T08:11:56.984Z,-0.20
2019-01-11T08:14:25.786Z,-0.10
2019-01-11T08:16:54.799Z,-0.10
2019-01-11T08:19:23.897Z,0.00
2019-01-11T08:21:52.756Z,-0.40
2019-01-11T08:24:22.552Z,-0.30
2019-01-11T08:26:51.614Z,-0.30
2019-01-11T08:29:20.415Z,-0.40
2019-01-11T08:31:49.169Z,-0.60
2019-01-11T08:34:17.995Z,-0.50
2019-01-11T08:36:46.919Z,-0.40
2019-01-11T08:39:15.707Z,-0.30
2019-01-11T08:41:44.859Z,-0.40
2019-01-11T08:46:48.492Z,-0.20
2019-01-11T08:49:17.403Z,0.00
2019-01-11T08:51:46.239Z,-0.20
2019-01-11T08:54:15.356Z,-0.30
2019-01-11T08:56:44.455Z,-0.30
2019-01-11T08:59:13.199Z,-0.30
2019-01-11T09:01:42.107Z,-0.30
2019-01-11T09:04:10.918Z,-0.20
2019-01-11T09:06:39.659Z,-0.30
2019-01-11T09:09:09.537Z,-0.30
2019-01-11T09:11:38.384Z,-0.20
2019-01-11T09:14:08.960Z,-0.20
2019-01-11T09:16:37.849Z,-0.20
2019-01-11T09:19:07.690Z,0.00
2019-01-11T09:21:41.618Z,0.00
2019-01-11T09:24:07.130Z,0.10
2019-01-11T09:26:35.907Z,0.20
2019-01-11T09:29:05.573Z,0.10
2019-01-11T09:31:34.380Z,0.10
2019-01-11T09:34:03.919Z,0.30
2019-01-11T09:36:51.925Z,0.50
2019-01-11T09:39:20.808Z,0.50
2019-01-11T09:41:49.550Z,0.50
2019-01-11T09:44:18.716Z,0.40
2019-01-11T09:46:47.587Z,0.50
2019-01-11T09:49:16.388Z,0.30
2019-01-11T09:51:46.271Z,0.20
2019-01-11T09:54:15.088Z,0.20
2019-01-11T09:56:43.811Z,0.40
2019-01-11T09:59:13.948Z,0.50
2019-01-11T10:01:42.863Z,0.40
2019-01-11T10:04:16.182Z,0.40
2019-01-11T10:06:55.390Z,0.40
2019-01-11T10:09:24.349Z,0.40
2019-01-11T10:11:53.219Z,0.50
2019-01-11T10:14:22.429Z,0.60
2019-01-11T10:16:51.196Z,0.60
2019-01-11T10:19:20.330Z,0.60
2019-01-11T10:21:49.152Z,0.70
2019-01-11T10:24:17.907Z,0.70
2019-01-11T10:26:47.938Z,0.70
2019-01-11T10:29:17.165Z,0.70
2019-01-11T10:31:46.132Z,0.60
2019-01-11T10:34:14.915Z,0.70
2019-01-11T10:36:43.817Z,0.80
2019-01-11T10:39:12.646Z,0.90
2019-01-11T10:41:41.447Z,1.20
2019-01-11T10:44:10.162Z,1.20
2019-01-11T10:46:40.952Z,1.00
2019-01-11T10:49:09.719Z,1.10
2019-01-11T10:51:38.638Z,1.00
2019-01-11T10:54:13.985Z,1.00
2019-01-11T10:56:42.841Z,0.90
2019-01-11T10:59:11.601Z,0.90
2019-01-11T11:01:40.392Z,0.90
2019-01-11T11:04:09.124Z,1.00
2019-01-11T11:06:37.939Z,0.80
2019-01-11T11:09:08.230Z,0.90
2019-01-11T11:11:37.443Z,1.00
2019-01-11T11:14:06.298Z,1.00
2019-01-11T11:16:35.102Z,1.00
2019-01-11T11:19:04.024Z,1.00
2019-01-11T11:21:34.847Z,1.00
2019-01-11T11:24:03.354Z,1.20
2019-01-11T11:26:32.552Z,1.20
2019-01-11T11:29:01.350Z,1.20
2019-01-11T11:31:30.324Z,1.20
2019-01-11T11:33:59.131Z,1.20
2019-01-11T11:36:28.348Z,1.30
2019-01-11T11:38:57.109Z,1.20
2019-01-11T11:41:25.982Z,1.30
2019-01-11T11:43:55.053Z,1.40
2019-01-11T11:46:23.891Z,1.40
2019-01-11T11:48:52.590Z,1.40
2019-01-11T11:51:21.529Z,1.40
2019-01-11T11:53:50.370Z,1.40
2019-01-11T11:56:19.224Z,1.40
2019-01-11T11:58:48.040Z,1.30
2019-01-11T12:01:16.838Z,1.30
2019-01-11T12:03:45.631Z,1.30
2019-01-11T12:06:14.532Z,1.30
2019-01-11T12:08:44.290Z,1.20
2019-01-11T12:13:48.100Z,1.10
2019-01-11T12:16:16.935Z,1.10
2019-01-11T12:18:46.766Z,1.10
2019-01-11T12:21:15.775Z,1.10
2019-01-11T12:23:45.722Z,1.00
2019-01-11T12:26:14.895Z,1.00
2019-01-11T12:28:43.598Z,0.90
2019-01-11T12:31:12.743Z,1.00
2019-01-11T12:33:41.519Z,0.90
2019-01-11T12:36:11.010Z,0.90
2019-01-11T12:38:39.896Z,0.90
2019-01-11T12:41:08.752Z,0.90
2019-01-11T12:43:37.831Z,0.90
2019-01-11T12:46:06.663Z,0.90
2019-01-11T12:48:35.562Z,0.90
2019-01-11T12:51:04.414Z,0.90
2019-01-11T12:53:33.282Z,0.90
2019-01-11T12:56:10.489Z,0.90
2019-01-11T12:58:39.411Z,1.00
2019-01-11T13:01:08.734Z,1.10
2019-01-11T13:03:38.011Z,1.10
2019-01-11T13:06:07.068Z,1.10
2019-01-11T13:08:35.940Z,1.00
2019-01-11T13:11:05.124Z,1.10
2019-01-11T13:13:34.008Z,1.10
2019-01-11T13:16:03.051Z,1.10
2019-01-11T13:18:32.135Z,1.10
2019-01-11T13:21:00.920Z,1.10
2019-01-11T13:23:29.861Z,1.00
2019-01-11T13:25:58.633Z,1.00
2019-01-11T13:28:27.543Z,1.10
2019-01-11T13:30:56.440Z,1.10
2019-01-11T13:33:25.382Z,1.10
2019-01-11T13:35:54.507Z,1.20
2019-01-11T13:38:23.830Z,1.20
2019-01-11T13:40:53.529Z,1.10
2019-01-11T13:43:22.947Z,1.10
2019-01-11T13:45:52.220Z,1.20
2019-01-11T13:48:21.067Z,1.30
2019-01-11T13:50:50.000Z,1.30
2019-01-11T13:53:20.038Z,1.30
2019-01-11T13:55:49.066Z,1.30
2019-01-11T13:58:18.327Z,1.30
2019-01-11T14:00:47.443Z,1.40
2019-01-11T14:03:16.811Z,1.30
2019-01-11T14:05:45.777Z,1.40
2019-01-11T14:08:14.774Z,1.30
2019-01-11T14:10:43.619Z,1.40
2019-01-11T14:13:12.564Z,1.40
2019-01-11T14:15:41.797Z,1.40
2019-01-11T14:18:10.802Z,1.40
2019-01-11T14:20:39.844Z,1.40
2019-01-11T14:23:09.062Z,1.30
2019-01-11T14:25:37.892Z,1.30
2019-01-11T14:28:06.991Z,1.40
2019-01-11T14:30:36.175Z,1.30
2019-01-11T14:33:05.862Z,1.30
2019-01-11T14:35:35.101Z,1.30
2019-01-11T14:38:03.994Z,1.30
2019-01-11T14:40:32.707Z,1.30
2019-01-11T14:43:02.150Z,1.40
2019-01-11T14:45:31.048Z,1.40
2019-01-11T14:48:00.867Z,1.40
2019-01-11T14:50:30.227Z,1.30
2019-01-11T14:52:59.166Z,1.30
2019-01-11T14:55:27.923Z,1.30
2019-01-11T14:57:57.146Z,1.30
2019-01-11T15:00:26.074Z,1.40
2019-01-11T15:02:54.900Z,1.50
2019-01-11T15:05:23.722Z,1.40
2019-01-11T15:07:53.019Z,1.50
2019-01-11T15:10:21.971Z,1.60
2019-01-11T15:12:51.028Z,1.60
2019-01-11T15:15:20.209Z,1.60
2019-01-11T15:17:49.044Z,1.60
2019-01-11T15:20:18.995Z,1.70
2019-01-11T15:22:48.430Z,1.80
2019-01-11T15:25:17.270Z,1.70
2019-01-11T15:27:46.276Z,1.70
2019-01-11T15:30:17.203Z,1.80
2019-01-11T15:32:46.202Z,1.80
2019-01-11T15:35:15.195Z,1.80
2019-01-11T15:37:44.798Z,1.80
2019-01-11T15:40:22.097Z,1.90
2019-01-11T15:42:51.023Z,1.90
2019-01-11T15:45:19.848Z,1.90
2019-01-11T15:47:49.281Z,1.90
2019-01-11T15:50:41.379Z,1.80
2019-01-11T15:53:10.316Z,1.80
2019-01-11T15:55:39.093Z,1.80
2019-01-11T15:58:07.917Z,1.80
2019-01-11T16:00:42.620Z,1.80
2019-01-11T16:03:11.847Z,1.70
2019-01-11T16:05:40.851Z,1.70
2019-01-11T16:08:09.995Z,1.80
2019-01-11T16:11:10.371Z,1.80
2019-01-11T16:14:25.521Z,1.80
2019-01-11T16:17:03.075Z,1.80
2019-01-11T16:19:32.264Z,1.80
2019-01-11T16:22:02.112Z,1.70
2019-01-11T16:24:31.087Z,1.70
2019-01-11T16:27:00.038Z,1.70
2019-01-11T16:29:28.998Z,1.80
2019-01-11T16:31:59.535Z,1.80
2019-01-11T16:34:28.804Z,1.70
2019-01-11T16:36:57.593Z,1.70
2019-01-11T16:39:26.484Z,1.80
2019-01-11T16:41:55.547Z,1.80
2019-01-11T16:44:24.637Z,1.80
2019-01-11T16:46:53.614Z,1.90
2019-01-11T16:49:22.509Z,1.90
2019-01-11T16:51:51.534Z,1.90
2019-01-11T16:54:20.545Z,1.80
2019-01-11T16:56:51.498Z,1.90
2019-01-11T16:59:20.650Z,1.90
2019-01-11T17:01:49.460Z,1.90
2019-01-11T17:04:18.385Z,2.00
2019-01-11T17:06:48.831Z,2.00
2019-01-11T17:09:18.428Z,2.10
2019-01-11T17:11:47.589Z,2.20
2019-01-11T17:14:16.394Z,2.20
2019-01-11T17:16:45.315Z,2.30
2019-01-11T17:19:14.483Z,2.30
2019-01-11T17:21:43.417Z,2.30
2019-01-11T17:24:12.323Z,2.40
2019-01-11T17:26:41.122Z,2.40
2019-01-11T17:29:09.933Z,2.50
2019-01-11T17:31:38.766Z,2.40
2019-01-11T17:34:08.060Z,2.40
2019-01-11T17:36:36.813Z,2.40
2019-01-11T17:39:09.710Z,2.40
2019-01-11T17:41:38.947Z,2.50
2019-01-11T17:44:07.886Z,2.50
2019-01-11T17:46:36.700Z,2.50
2019-01-11T17:49:06.255Z,2.50
2019-01-11T17:51:35.354Z,2.50
2019-01-11T17:54:04.637Z,2.60
2019-01-11T17:56:33.489Z,2.60
2019-01-11T17:59:02.581Z,2.60
2019-01-11T18:01:31.451Z,2.60
2019-01-11T18:04:00.701Z,2.60
2019-01-11T18:06:30.090Z,2.60
2019-01-11T18:08:58.932Z,2.60
2019-01-11T18:11:27.816Z,2.70
2019-01-11T18:13:56.651Z,2.70
2019-01-11T18:16:25.644Z,2.80
2019-01-11T18:18:54.543Z,2.80
2019-01-11T18:21:23.631Z,2.80
2019-01-11T18:23:52.563Z,2.90
2019-01-11T18:26:21.517Z,2.80
2019-01-11T18:28:50.837Z,2.90
2019-01-11T18:31:20.015Z,2.90
2019-01-11T18:33:49.299Z,2.80
2019-01-11T18:36:18.042Z,2.80
2019-01-11T18:38:47.111Z,2.80
2019-01-11T18:41:16.109Z,2.70
2019-01-11T18:43:45.221Z,2.80
2019-01-11T18:46:14.264Z,2.80
2019-01-11T18:48:44.283Z,2.80
2019-01-11T18:51:14.429Z,2.90
2019-01-11T18:53:43.367Z,2.90
2019-01-11T18:56:12.235Z,2.90
2019-01-11T18:58:41.226Z,2.90
2019-01-11T19:01:09.948Z,2.90
2019-01-11T19:03:38.750Z,2.90
2019-01-11T19:06:07.893Z,2.90
2019-01-11T19:08:36.794Z,3.00
2019-01-11T19:11:05.692Z,3.00
2019-01-11T19:13:34.445Z,3.10
2019-01-11T19:16:03.328Z,3.00
2019-01-11T19:18:32.240Z,3.10
2019-01-11T19:21:02.849Z,3.10
2019-01-11T19:23:31.870Z,3.10
2019-01-11T19:26:00.871Z,3.10
2019-01-11T19:28:30.196Z,3.10
2019-01-11T19:30:59.326Z,3.10
2019-01-11T19:33:28.609Z,3.10
2019-01-11T19:35:57.546Z,3.10
2019-01-11T19:38:26.355Z,3.10
2019-01-11T19:40:56.242Z,3.10
2019-01-11T19:43:25.353Z,3.20
2019-01-11T19:45:54.223Z,3.20
2019-01-11T19:48:23.439Z,3.10
2019-01-11T19:50:52.285Z,3.10
2019-01-11T19:53:27.291Z,3.10
2019-01-11T19:55:58.536Z,3.10
2019-01-11T19:58:22.307Z,3.10
2019-01-11T20:00:51.235Z,3.10
2019-01-11T20:03:20.282Z,3.20
2019-01-11T20:05:49.219Z,3.20
2019-01-11T20:08:18.683Z,3.20
2019-01-11T20:10:47.827Z,3.20
2019-01-11T20:13:17.763Z,3.20
2019-01-11T20:15:47.142Z,3.20
2019-01-11T20:18:16.199Z,3.20
2019-01-11T20:20:46.264Z,3.30
2019-01-11T20:23:15.651Z,3.30
2019-01-11T20:25:46.259Z,3.30
2019-01-11T20:28:17.344Z,3.30
2019-01-11T20:30:46.599Z,3.30
2019-01-11T20:33:15.932Z,3.30
2019-01-11T20:35:46.685Z,3.30
2019-01-11T20:38:15.934Z,3.30
2019-01-11T20:40:45.224Z,3.40
2019-01-11T20:43:14.897Z,3.40
2019-01-11T20:45:43.961Z,3.40
2019-01-11T20:48:13.158Z,3.50
2019-01-11T20:50:42.426Z,3.60
2019-01-11T20:53:11.580Z,3.70
2019-01-11T20:55:41.040Z,3.70
2019-01-11T20:58:11.152Z,3.70
2019-01-11T21:00:40.698Z,3.70
2019-01-11T21:03:16.509Z,3.80
2019-01-11T21:05:47.128Z,3.80
2019-01-11T21:08:16.804Z,3.70
2019-01-11T21:10:46.600Z,3.70
2019-01-11T21:13:16.958Z,3.80
2019-01-11T21:15:46.596Z,3.90
2019-01-11T21:18:17.554Z,3.80
2019-01-11T21:20:47.570Z,3.80
2019-01-11T21:23:17.429Z,3.70
2019-01-11T21:25:47.005Z,3.70
2019-01-11T21:28:16.861Z,3.80
2019-01-11T21:30:46.484Z,3.80
2019-01-11T21:33:16.618Z,3.70
2019-01-11T21:35:46.173Z,3.70
2019-01-11T21:38:15.293Z,3.70
2019-01-11T21:40:45.877Z,3.70
2019-01-11T21:43:16.266Z,3.70
2019-01-11T21:45:46.125Z,3.70
2019-01-11T21:48:16.279Z,3.70
2019-01-11T21:50:48.802Z,3.80
2019-01-11T21:53:22.339Z,3.80
2019-01-11T21:55:54.642Z,3.80
2019-01-11T21:58:24.515Z,3.80
2019-01-11T22:00:55.982Z,3.80
2019-01-11T22:03:27.682Z,3.80
2019-01-11T22:05:59.226Z,3.90
2019-01-11T22:08:30.182Z,3.80
2019-01-11T22:10:59.678Z,3.80
2019-01-11T22:13:29.399Z,3.80
2019-01-11T22:15:58.879Z,3.80
2019-01-11T22:18:33.312Z,3.80
2019-01-11T22:21:03.164Z,3.80
2019-01-11T22:23:33.692Z,3.80
2019-01-11T22:26:02.908Z,3.90
2019-01-11T22:28:32.993Z,3.90
2019-01-11T22:31:03.005Z,3.90
2019-01-11T22:33:32.628Z,3.90
2019-01-11T22:36:02.247Z,3.90
2019-01-11T22:38:32.554Z,3.90
2019-01-11T22:41:02.329Z,3.90
2019-01-11T22:43:31.836Z,3.90
2019-01-11T22:46:01.849Z,3.90
2019-01-11T22:48:31.377Z,3.90
2019-01-11T22:51:00.882Z,3.90
2019-01-11T22:53:30.732Z,4.10
2019-01-11T22:56:00.144Z,4.10
2019-01-11T22:58:30.058Z,4.00
2019-01-11T23:01:32.457Z,3.90
2019-01-11T23:04:02.335Z,3.80
2019-01-11T23:06:50.389Z,3.80
2019-01-11T23:09:21.907Z,3.80
2019-01-11T23:12:15.084Z,3.70
2019-01-11T23:14:44.115Z,3.70
2019-01-11T23:17:26.236Z,3.80
2019-01-11T23:19:55.850Z,3.80
2019-01-11T23:22:25.913Z,3.90
2019-01-11T23:24:55.860Z,3.90
2019-01-11T23:27:26.508Z,3.90
2019-01-11T23:29:56.231Z,4.00
2019-01-11T23:32:26.481Z,3.90
2019-01-11T23:34:56.992Z,4.00
2019-01-11T23:37:27.668Z,3.90
2019-01-11T23:39:56.598Z,4.00
2019-01-11T23:42:27.881Z,4.00
2019-01-11T23:44:58.201Z,4.00
2019-01-11T23:47:27.166Z,4.00
2019-01-11T23:49:56.067Z,4.10
2019-01-11T23:52:25.852Z,4.00
2019-01-11T23:54:55.878Z,4.00
2019-01-11T23:57:25.816Z,4.00
2019-01-11T23:59:57.306Z,4.00
